Time;durP1;ratioP1;P1;durP2;ratioP2;P2;SDS_P1;SDS_P2;PMS_P1;PMS_P2;Temp;Humidity;BMP_temperature;BMP_pressure;BME280_temperature;BME280_humidity;BME280_pressure;Samples;Min_cycle;Max_cycle;Signal;HPM_P1;HPM_P2
2022/08/08 00:00:10;;;;;;;4.80;2.85;;;15.10;99.90;;;;;;5066021;28;20433;-68
2022/08/08 00:02:56;;;;;;;;;;;15.10;99.90;;;;;;5035769;28;20143;-67
2022/08/08 00:05:40;;;;;;;8.52;3.53;;;15.10;99.90;;;;;;5069731;28;20046;-68
2022/08/08 00:08:09;;;;;;;7.55;3.70;;;15.00;99.90;;;;;;5047282;28;20085;-68
2022/08/08 00:10:59;;;;;;;7.75;3.90;;;15.00;99.90;;;;;;5062667;28;20119;-67
2022/08/08 00:13:52;;;;;;;8.80;3.90;;;15.00;99.90;;;;;;5061676;28;20052;-66
2022/08/08 00:16:31;;;;;;;6.20;3.70;;;15.00;99.90;;;;;;5065333;28;20448;-68
2022/08/08 00:19:17;;;;;;;6.50;3.40;;;15.00;99.90;;;;;;5070466;28;20036;-68
2022/08/08 00:21:59;;;;;;;10.30;3.30;;;14.90;99.90;;;;;;5067665;28;20080;-68
2022/08/08 00:24:35;;;;;;;10.73;3.72;;;14.90;99.90;;;;;;5065868;28;20493;-68
2022/08/08 00:27:09;;;;;;;9.52;3.78;;;14.90;99.90;;;;;;5070579;28;20049;-68
2022/08/08 00:29:45;;;;;;;7.47;3.50;;;14.90;99.90;;;;;;5046772;28;20044;-69
2022/08/08 00:32:27;;;;;;;6.85;3.38;;;14.90;99.90;;;;;;5051555;28;20075;-67
2022/08/08 00:35:37;;;;;;;8.65;3.65;;;14.90;99.90;;;;;;5062827;28;20053;-67
2022/08/08 00:38:24;;;;;;;8.68;3.50;;;14.90;99.90;;;;;;5029222;28;20052;-69
2022/08/08 00:40:59;;;;;;;7.13;3.88;;;14.80;99.90;;;;;;5063725;28;20037;-70
2022/08/08 00:44:02;;;;;;;8.13;3.53;;;14.80;99.90;;;;;;5052319;28;20439;-68
2022/08/08 00:47:16;;;;;;;6.80;3.35;;;14.80;99.90;;;;;;5056492;28;20427;-68
2022/08/08 00:50:05;;;;;;;5.60;3.40;;;14.80;99.90;;;;;;5046827;28;20517;-68
2022/08/08 00:52:46;;;;;;;6.40;3.00;;;14.70;99.90;;;;;;5063185;28;20072;-68
2022/08/08 00:55:41;;;;;;;7.78;3.47;;;14.80;99.90;;;;;;5037529;28;20094;-68
2022/08/08 00:58:21;;;;;;;7.60;3.45;;;14.70;99.90;;;;;;5044288;28;20512;-70
2022/08/08 01:01:05;;;;;;;11.20;3.50;;;14.70;99.90;;;;;;5052786;28;20597;-67
2022/08/08 01:04:08;;;;;;;11.32;3.67;;;14.70;99.90;;;;;;5064553;28;20040;-67
2022/08/08 01:07:11;;;;;;;6.32;3.35;;;14.70;99.90;;;;;;5064662;28;20036;-67
2022/08/08 01:09:56;;;;;;;9.35;3.00;;;14.70;99.90;;;;;;5047237;28;20047;-68
2022/08/08 01:13:02;;;;;;;7.85;3.47;;;14.70;99.90;;;;;;5061674;28;20541;-69
2022/08/08 01:15:57;;;;;;;7.43;3.65;;;14.60;99.90;;;;;;5063588;28;20106;-68
2022/08/08 01:18:30;;;;;;;9.15;3.10;;;14.60;99.90;;;;;;5059424;28;20053;-67
2022/08/08 01:21:19;;;;;;;9.68;3.95;;;14.60;99.90;;;;;;5069990;28;20052;-67
2022/08/08 01:24:23;;;;;;;8.43;3.47;;;14.60;99.90;;;;;;5059944;28;20044;-68
2022/08/08 01:27:03;;;;;;;9.95;3.30;;;14.60;99.90;;;;;;5044841;28;20091;-68
2022/08/08 01:30:07;;;;;;;8.80;3.60;;;14.60;99.90;;;;;;5072015;28;20044;-68
2022/08/08 01:32:39;;;;;;;7.47;3.58;;;14.50;99.90;;;;;;5073090;28;20083;-68
2022/08/08 01:35:41;;;;;;;5.72;3.17;;;14.50;99.90;;;;;;5071535;28;20443;-68
2022/08/08 01:38:26;;;;;;;8.75;4.00;;;14.50;99.90;;;;;;5021097;28;20052;-68
2022/08/08 01:41:01;;;;;;;8.52;3.38;;;14.40;99.90;;;;;;5050971;28;20139;-68
2022/08/08 01:43:54;;;;;;;8.40;3.60;;;14.50;99.90;;;;;;5056177;28;20080;-69
2022/08/08 01:46:29;;;;;;;8.48;3.85;;;14.50;99.90;;;;;;5064495;28;20040;-67
2022/08/08 01:48:57;;;;;;;6.43;3.85;;;14.50;99.90;;;;;;5055655;28;20067;-67
2022/08/08 01:51:42;;;;;;;9.55;3.72;;;14.40;99.90;;;;;;5072429;28;20131;-68
2022/08/08 01:54:21;;;;;;;8.68;3.97;;;14.40;99.90;;;;;;5066682;28;20040;-67
2022/08/08 01:57:12;;;;;;;7.45;3.72;;;14.40;99.90;;;;;;5048151;28;20044;-68
2022/08/08 01:59:50;;;;;;;10.45;3.90;;;14.40;99.90;;;;;;5066920;28;20045;-69
2022/08/08 02:02:53;;;;;;;10.70;4.10;;;14.40;99.90;;;;;;5072698;28;20052;-68
2022/08/08 02:06:03;;;;;;;10.00;3.90;;;14.40;99.90;;;;;;5064155;28;20071;-68
2022/08/08 02:08:52;;;;;;;8.50;4.13;;;14.40;99.90;;;;;;5026187;28;20053;-68
2022/08/08 02:11:26;;;;;;;10.07;4.20;;;14.40;99.90;;;;;;5060164;28;20510;-66
2022/08/08 02:14:19;;;;;;;6.93;4.18;;;14.40;99.90;;;;;;5055126;28;20056;-68
2022/08/08 02:17:09;;;;;;;9.90;4.13;;;14.40;99.90;;;;;;5068020;28;20376;-68
2022/08/08 02:20:10;;;;;;;11.25;4.15;;;14.40;99.90;;;;;;5066075;28;20045;-67
2022/08/08 02:23:10;;;;;;;7.75;3.60;;;14.40;99.90;;;;;;5052357;28;20460;-67
2022/08/08 02:26:00;;;;;;;8.98;3.80;;;14.40;99.90;;;;;;5066227;28;20448;-67
2022/08/08 02:28:52;;;;;;;11.38;4.13;;;14.50;99.90;;;;;;5067711;28;20052;-69
2022/08/08 02:31:39;;;;;;;8.60;4.03;;;14.50;99.90;;;;;;5054925;28;20437;-67
2022/08/08 02:34:34;;;;;;;9.05;3.90;;;14.50;99.90;;;;;;5065133;28;20040;-67
2022/08/08 02:37:12;;;;;;;7.30;3.70;;;14.50;99.90;;;;;;5032940;28;20048;-68
2022/08/08 02:39:50;;;;;;;6.20;3.97;;;14.50;99.90;;;;;;5065262;28;20461;-68
2022/08/08 02:43:06;;;;;;;10.95;4.25;;;14.50;99.90;;;;;;5071744;28;20664;-68
2022/08/08 02:45:59;;;;;;;9.73;4.20;;;14.60;99.90;;;;;;5064899;28;21947;-68
2022/08/08 02:48:59;;;;;;;6.30;4.10;;;14.70;99.90;;;;;;5052302;28;20048;-68
2022/08/08 02:51:50;;;;;;;10.52;4.18;;;14.70;99.90;;;;;;5072103;28;20055;-68
2022/08/08 02:54:35;;;;;;;8.95;4.72;;;14.80;99.90;;;;;;5068677;28;20402;-68
2022/08/08 02:57:31;;;;;;;10.55;5.10;;;14.90;99.90;;;;;;5045405;28;20367;-68
2022/08/08 03:00:38;;;;;;;8.30;5.35;;;14.90;99.90;;;;;;5073565;28;20048;-67
2022/08/08 03:03:23;;;;;;;8.57;4.53;;;15.00;99.90;;;;;;5072184;28;20120;-68
2022/08/08 03:06:07;;;;;;;9.15;4.38;;;15.00;99.90;;;;;;5067446;28;20053;-69
2022/08/08 03:08:45;;;;;;;8.77;3.75;;;15.10;99.90;;;;;;5049679;28;20486;-68
2022/08/08 03:11:44;;;;;;;11.10;3.90;;;15.10;99.90;;;;;;5054767;28;20082;-66
2022/08/08 03:14:52;;;;;;;7.38;3.50;;;15.20;99.90;;;;;;5037820;28;20082;-67
2022/08/08 03:17:31;;;;;;;8.95;3.83;;;15.20;99.90;;;;;;5071649;28;20053;-67
2022/08/08 03:22:28;;;;;;;29.67;4.35;;;15.30;99.90;;;;;;5065798;28;20395;-69
2022/08/08 03:24:54;;;;;;;7.00;3.47;;;15.30;99.90;;;;;;5069219;28;20063;-68
2022/08/08 03:27:34;;;;;;;7.00;3.53;;;15.30;99.90;;;;;;5069866;28;20044;-69
2022/08/08 03:30:08;;;;;;;5.63;3.25;;;15.30;99.90;;;;;;5072822;28;20603;-70
2022/08/08 03:35:27;;;;;;;7.82;3.38;;;15.30;99.90;;;;;;5064919;28;20048;-67
2022/08/08 03:37:59;;;;;;;9.50;3.90;;;15.30;99.90;;;;;;5054066;28;20509;-68
2022/08/08 03:40:24;;;;;;;6.00;3.60;;;15.30;99.90;;;;;;5047147;28;20406;-68
2022/08/08 03:42:50;;;;;;;8.57;4.20;;;15.30;99.90;;;;;;5038200;28;20051;-68
2022/08/08 03:45:17;;;;;;;9.48;3.53;;;15.30;99.90;;;;;;5068879;28;20047;-69
2022/08/08 03:47:43;;;;;;;6.57;3.33;;;15.20;99.90;;;;;;5073564;28;20050;-67
2022/08/08 03:50:19;;;;;;;7.47;3.90;;;15.20;99.90;;;;;;5067182;28;20073;-68
2022/08/08 03:52:44;;;;;;;9.98;3.72;;;15.20;99.90;;;;;;5069965;28;20048;-69
2022/08/08 03:55:12;;;;;;;8.63;3.40;;;15.20;99.90;;;;;;5048523;28;20036;-70
2022/08/08 03:57:46;;;;;;;9.00;3.50;;;15.20;99.90;;;;;;5050620;28;20398;-68
2022/08/08 04:00:14;;;;;;;12.02;3.90;;;15.20;99.90;;;;;;5072396;28;20514;-68
2022/08/08 04:02:41;;;;;;;10.18;3.72;;;15.20;99.90;;;;;;5059836;28;20029;-68
2022/08/08 04:05:13;;;;;;;9.20;3.47;;;15.20;99.90;;;;;;5073919;28;20041;-68
2022/08/08 04:07:39;;;;;;;10.27;4.30;;;15.20;99.90;;;;;;5045407;28;20395;-69
2022/08/08 04:10:09;;;;;;;8.05;3.95;;;15.10;99.90;;;;;;5068424;28;20116;-68
2022/08/08 04:12:36;;;;;;;10.57;4.10;;;15.10;99.90;;;;;;5063471;28;20045;-68
2022/08/08 04:15:03;;;;;;;9.63;4.15;;;15.20;99.90;;;;;;5071764;28;20064;-69
2022/08/08 04:17:28;;;;;;;8.30;3.87;;;15.20;99.90;;;;;;5067856;28;20040;-68
2022/08/08 04:19:55;;;;;;;12.63;3.72;;;15.20;99.90;;;;;;5067304;28;20290;-67
2022/08/08 04:22:25;;;;;;;10.82;3.58;;;15.20;99.90;;;;;;5060958;28;20087;-69
2022/08/08 04:24:54;;;;;;;8.57;3.53;;;15.20;99.90;;;;;;5051586;28;20047;-69
2022/08/08 04:27:20;;;;;;;12.23;3.58;;;15.20;99.90;;;;;;5068657;28;20076;-67
2022/08/08 04:29:47;;;;;;;9.98;4.28;;;15.20;99.90;;;;;;5053412;28;20105;-69
2022/08/08 04:32:16;;;;;;;13.43;3.67;;;15.30;99.90;;;;;;5060755;28;20553;-68
2022/08/08 04:34:42;;;;;;;8.02;3.58;;;15.30;99.90;;;;;;5066608;28;20103;-66
2022/08/08 04:37:13;;;;;;;13.30;4.13;;;15.30;99.90;;;;;;5071477;28;20060;-67
2022/08/08 04:39:39;;;;;;;13.15;4.07;;;15.30;99.90;;;;;;5068371;28;20053;-69
2022/08/08 04:42:09;;;;;;;7.03;3.88;;;15.40;99.90;;;;;;5033234;28;20045;-68
2022/08/08 04:44:41;;;;;;;12.10;4.45;;;15.40;99.90;;;;;;5063527;28;20441;-68
2022/08/08 04:47:13;;;;;;;10.32;4.20;;;15.40;99.90;;;;;;5070948;28;20045;-68
2022/08/08 04:49:38;;;;;;;6.82;4.13;;;15.40;99.90;;;;;;5052890;28;20270;-69
2022/08/08 04:52:04;;;;;;;9.25;3.88;;;15.40;99.90;;;;;;5033706;28;20060;-67
2022/08/08 04:54:30;;;;;;;10.73;4.35;;;15.40;99.90;;;;;;5062962;28;20499;-68
2022/08/08 04:56:56;;;;;;;8.82;3.65;;;15.40;99.90;;;;;;5070077;28;20080;-68
2022/08/08 04:59:22;;;;;;;9.20;3.95;;;15.40;99.90;;;;;;5036814;28;20075;-68
2022/08/08 05:01:48;;;;;;;8.43;3.65;;;15.40;99.90;;;;;;5068582;28;20082;-67
2022/08/08 05:04:14;;;;;;;8.13;3.85;;;15.40;99.90;;;;;;5063140;28;20086;-66
2022/08/08 05:06:40;;;;;;;8.32;3.83;;;15.40;99.90;;;;;;5063239;28;20069;-67
2022/08/08 05:09:06;;;;;;;9.10;4.40;;;15.40;99.90;;;;;;5063130;28;20087;-69
2022/08/08 05:11:32;;;;;;;6.72;3.70;;;15.50;99.90;;;;;;5053468;28;20039;-68
2022/08/08 05:13:58;;;;;;;10.20;4.07;;;15.50;99.90;;;;;;5070452;28;20057;-69
2022/08/08 05:16:23;;;;;;;10.18;4.50;;;15.50;99.90;;;;;;5064307;28;20037;-68
2022/08/08 05:18:49;;;;;;;8.15;3.97;;;15.50;99.90;;;;;;5071146;28;20041;-68
2022/08/08 05:21:15;;;;;;;15.68;4.45;;;15.60;99.90;;;;;;5062668;28;20041;-68
2022/08/08 05:23:41;;;;;;;7.93;4.35;;;15.70;99.90;;;;;;5052304;28;20051;-68
2022/08/08 05:26:06;;;;;;;12.35;5.45;;;15.70;99.90;;;;;;5063422;28;20090;-68
2022/08/08 05:28:32;;;;;;;23.90;4.72;;;15.70;99.90;;;;;;5070152;28;20078;-68
2022/08/08 05:30:58;;;;;;;9.68;4.35;;;15.80;99.90;;;;;;5066681;28;20044;-69
2022/08/08 05:33:27;;;;;;;7.93;4.20;;;15.80;99.90;;;;;;5053061;28;20037;-69
2022/08/08 05:35:53;;;;;;;8.15;4.07;;;15.90;99.90;;;;;;5070370;28;20053;-68
2022/08/08 05:38:25;;;;;;;11.25;4.28;;;15.90;99.90;;;;;;5066490;28;20047;-68
2022/08/08 05:40:56;;;;;;;9.75;4.20;;;16.00;99.90;;;;;;5069874;28;20048;-67
2022/08/08 05:43:25;;;;;;;8.55;4.18;;;16.10;99.90;;;;;;5051869;28;20032;-69
2022/08/08 05:45:58;;;;;;;9.55;4.00;;;16.10;99.90;;;;;;5069456;28;20471;-67
2022/08/08 05:48:24;;;;;;;11.70;4.28;;;16.10;99.90;;;;;;5068365;28;20123;-68
2022/08/08 05:50:50;;;;;;;9.52;4.10;;;16.20;99.90;;;;;;5059651;28;20574;-68
2022/08/08 05:53:17;;;;;;;9.55;4.13;;;16.20;99.90;;;;;;5050743;28;20072;-69
2022/08/08 05:55:44;;;;;;;8.57;3.78;;;16.20;99.90;;;;;;5041794;28;20495;-67
2022/08/08 05:58:13;;;;;;;7.70;3.33;;;16.30;99.90;;;;;;5051445;28;20400;-68
2022/08/08 06:00:41;;;;;;;9.20;4.20;;;16.30;99.90;;;;;;5070074;28;20051;-69
2022/08/08 06:03:13;;;;;;;10.40;4.43;;;16.30;99.90;;;;;;5061052;28;20154;-67
2022/08/08 06:05:49;;;;;;;7.97;4.03;;;16.40;99.90;;;;;;5068831;28;20048;-67
2022/08/08 06:08:23;;;;;;;11.43;3.88;;;16.40;99.90;;;;;;5067019;28;20056;-67
2022/08/08 06:10:51;;;;;;;9.55;4.40;;;16.40;99.90;;;;;;5054880;28;20037;-67
2022/08/08 06:13:18;;;;;;;9.75;4.07;;;16.40;99.90;;;;;;5049889;28;20041;-68
2022/08/08 06:15:47;;;;;;;9.60;4.22;;;16.50;99.90;;;;;;5071988;28;20051;-67
2022/08/08 06:18:14;;;;;;;8.60;4.13;;;16.50;99.90;;;;;;5073697;28;20136;-68
2022/08/08 06:20:42;;;;;;;9.27;4.30;;;16.60;99.90;;;;;;5072948;28;20040;-69
2022/08/08 06:23:07;;;;;;;10.82;4.30;;;16.60;99.90;;;;;;5055789;28;20170;-68
2022/08/08 06:25:40;;;;;;;9.27;4.00;;;16.70;99.90;;;;;;5066625;28;20037;-68
2022/08/08 06:28:18;;;;;;;13.85;3.78;;;16.70;99.90;;;;;;5038098;28;20140;-67
2022/08/08 06:30:46;;;;;;;9.85;4.00;;;16.70;99.90;;;;;;5072735;28;20091;-69
2022/08/08 06:33:15;;;;;;;11.48;4.03;;;16.80;99.90;;;;;;5052866;28;20040;-67
2022/08/08 06:35:46;;;;;;;17.00;4.32;;;16.80;99.90;;;;;;5067287;28;20055;-67
2022/08/08 06:38:18;;;;;;;16.92;4.43;;;16.90;99.90;;;;;;5054438;28;20044;-68
2022/08/08 06:40:48;;;;;;;14.48;4.55;;;17.00;99.90;;;;;;5038420;28;20512;-68
2022/08/08 06:43:19;;;;;;;9.90;3.80;;;17.10;99.90;;;;;;5073027;28;20370;-68
2022/08/08 06:45:45;;;;;;;7.53;3.97;;;17.40;99.90;;;;;;5054953;28;20056;-68
2022/08/08 06:48:11;;;;;;;14.23;3.80;;;17.60;99.90;;;;;;5049080;28;20043;-68
2022/08/08 06:50:39;;;;;;;8.95;3.40;;;17.60;99.90;;;;;;5056685;28;20040;-67
2022/08/08 06:53:07;;;;;;;10.57;3.72;;;17.70;99.90;;;;;;5072473;28;20119;-68
2022/08/08 06:55:34;;;;;;;7.22;3.40;;;17.80;99.90;;;;;;5067829;28;20435;-68
2022/08/08 06:58:00;;;;;;;6.23;3.37;;;18.10;99.90;;;;;;5072463;28;20086;-69
2022/08/08 07:00:30;;;;;;;11.30;3.08;;;18.20;99.90;;;;;;5066742;28;20291;-68
2022/08/08 07:03:01;;;;;;;8.95;2.90;;;18.30;99.90;;;;;;5042336;28;20053;-67
2022/08/08 07:05:32;;;;;;;6.70;3.10;;;18.30;99.90;;;;;;5071843;28;20478;-67
2022/08/08 07:08:06;;;;;;;10.93;3.20;;;18.30;99.90;;;;;;5071466;28;20075;-68
2022/08/08 07:10:37;;;;;;;6.43;2.63;;;18.30;99.90;;;;;;5038308;28;20071;-69
2022/08/08 07:13:05;;;;;;;11.45;2.97;;;18.40;99.90;;;;;;5072400;28;20048;-67
2022/08/08 07:15:51;;;;;;;13.35;2.80;;;18.30;99.90;;;;;;5065163;28;20048;-67
2022/08/08 07:18:42;;;;;;;9.63;2.78;;;18.30;99.90;;;;;;5047966;28;20044;-68
2022/08/08 07:21:11;;;;;;;6.55;2.85;;;18.30;99.90;;;;;;5004441;28;20052;-68
2022/08/08 07:23:49;;;;;;;9.27;2.83;;;18.30;99.90;;;;;;5070354;28;20491;-68
2022/08/08 07:26:20;;;;;;;6.97;2.22;;;18.30;99.90;;;;;;5072706;28;20041;-68
2022/08/08 07:28:48;;;;;;;6.70;2.40;;;18.30;99.90;;;;;;5072439;28;20525;-68
2022/08/08 07:31:15;;;;;;;9.55;2.72;;;18.30;99.90;;;;;;5048105;28;20040;-68
2022/08/08 07:33:42;;;;;;;7.93;2.60;;;18.30;99.90;;;;;;5052988;28;20036;-70
2022/08/08 07:36:09;;;;;;;7.90;2.55;;;18.30;99.90;;;;;;5067159;28;20060;-69
2022/08/08 07:38:40;;;;;;;8.18;2.88;;;18.30;99.90;;;;;;5068135;28;20071;-68
2022/08/08 07:41:07;;;;;;;8.45;3.13;;;18.40;99.90;;;;;;5061663;28;20119;-68
2022/08/08 07:43:38;;;;;;;6.88;1.95;;;18.70;99.90;;;;;;5061322;28;20040;-68
2022/08/08 07:46:04;;;;;;;9.73;2.85;;;18.90;99.90;;;;;;5070514;28;20043;-69
2022/08/08 07:48:30;;;;;;;6.05;2.13;;;19.10;99.90;;;;;;5069041;28;20043;-68
2022/08/08 07:50:59;;;;;;;8.65;2.00;;;19.30;99.90;;;;;;5072480;28;20036;-69
2022/08/08 07:53:33;;;;;;;10.20;2.10;;;19.50;99.90;;;;;;5071859;28;21161;-71
2022/08/08 07:56:01;;;;;;;8.35;1.90;;;19.60;99.90;;;;;;5069297;28;20041;-67
2022/08/08 07:58:31;;;;;;;9.18;1.77;;;19.80;99.90;;;;;;5063654;28;20051;-67
2022/08/08 08:01:05;;;;;;;9.30;1.73;;;19.90;99.90;;;;;;5072139;28;20048;-70
2022/08/08 08:03:55;;;;;;;8.23;1.65;;;20.00;99.90;;;;;;5047238;28;20407;-67
2022/08/08 08:06:21;;;;;;;2.42;1.35;;;20.20;99.90;;;;;;5038105;28;20395;-67
2022/08/08 08:08:54;;;;;;;6.82;1.73;;;20.70;99.90;;;;;;5064649;28;20044;-67
2022/08/08 08:11:25;;;;;;;4.35;1.55;;;20.60;99.90;;;;;;5047209;28;20045;-68
2022/08/08 08:14:02;;;;;;;5.53;1.38;;;20.90;99.90;;;;;;5068772;28;20044;-67
2022/08/08 08:16:35;;;;;;;4.05;1.25;;;21.20;99.90;;;;;;5050343;28;20041;-68
2022/08/08 08:19:04;;;;;;;5.30;1.70;;;21.40;99.90;;;;;;5065697;28;20045;-68
2022/08/08 08:21:46;;;;;;;3.50;1.30;;;21.50;99.90;;;;;;5054679;28;20036;-69
2022/08/08 08:24:12;;;;;;;3.90;1.35;;;21.40;99.90;;;;;;5053336;28;20094;-68
2022/08/08 08:26:43;;;;;;;3.10;1.58;;;21.30;99.90;;;;;;5066900;28;20037;-69
2022/08/08 08:29:09;;;;;;;3.00;1.35;;;21.20;99.90;;;;;;5068491;28;20142;-68
2022/08/08 08:31:35;;;;;;;3.60;1.50;;;21.20;99.90;;;;;;5053580;28;20072;-67
2022/08/08 08:34:01;;;;;;;3.47;1.35;;;21.10;99.90;;;;;;5066547;28;20041;-68
2022/08/08 08:36:27;;;;;;;5.60;1.55;;;20.90;99.90;;;;;;5069895;28;20052;-67
2022/08/08 08:38:53;;;;;;;3.85;1.50;;;20.80;99.90;;;;;;5068511;28;20044;-67
2022/08/08 08:41:22;;;;;;;6.30;1.50;;;20.70;99.90;;;;;;5068093;28;20045;-67
2022/08/08 08:43:49;;;;;;;6.18;1.35;;;20.50;99.90;;;;;;5070378;28;20048;-68
2022/08/08 08:46:15;;;;;;;5.10;1.70;;;20.40;99.90;;;;;;5066472;28;20041;-67
2022/08/08 08:48:46;;;;;;;5.53;1.65;;;20.40;99.90;;;;;;5037676;28;20045;-67
2022/08/08 08:51:16;;;;;;;5.32;1.52;;;20.30;99.90;;;;;;5063703;28;20090;-68
2022/08/08 08:53:51;;;;;;;4.57;1.75;;;20.30;99.90;;;;;;5071267;28;20115;-67
2022/08/08 08:56:19;;;;;;;5.68;1.70;;;20.30;99.90;;;;;;5068604;28;20044;-67
2022/08/08 08:58:47;;;;;;;6.78;2.40;;;20.30;99.90;;;;;;5066605;28;20062;-67
2022/08/08 09:01:17;;;;;;;5.75;1.58;;;20.30;99.90;;;;;;5051275;28;20070;-68
2022/08/08 09:03:48;;;;;;;5.18;1.88;;;20.30;99.90;;;;;;5062640;28;20388;-68
2022/08/08 09:06:26;;;;;;;10.52;2.00;;;20.30;99.90;;;;;;5067030;28;20040;-67
2022/08/08 09:09:19;;;;;;;7.03;1.70;;;20.30;99.90;;;;;;5046878;28;20048;-68
2022/08/08 09:11:47;;;;;;;4.47;1.80;;;20.40;99.90;;;;;;5061413;28;20056;-67
2022/08/08 09:14:14;;;;;;;3.28;1.42;;;20.30;99.90;;;;;;5073020;28;20044;-67
2022/08/08 09:16:39;;;;;;;2.50;1.20;;;20.30;99.90;;;;;;5063899;28;20068;-67
2022/08/08 09:19:05;;;;;;;5.20;1.45;;;20.40;99.90;;;;;;5073139;28;20368;-66
2022/08/08 09:21:34;;;;;;;3.70;1.40;;;20.40;99.90;;;;;;5071561;28;20036;-67
2022/08/08 09:24:01;;;;;;;4.13;1.40;;;20.40;99.90;;;;;;5054044;28;20035;-67
2022/08/08 09:26:44;;;;;;;5.13;1.80;;;20.50;99.90;;;;;;5033399;28;20037;-67
2022/08/08 09:29:19;;;;;;;3.80;1.67;;;20.70;99.90;;;;;;5070478;28;20044;-67
2022/08/08 09:32:02;;;;;;;4.25;1.40;;;20.70;99.90;;;;;;5067653;28;20095;-68
2022/08/08 09:34:31;;;;;;;4.80;1.20;;;20.70;99.90;;;;;;5050332;28;20041;-68
2022/08/08 09:37:03;;;;;;;9.57;1.80;;;20.80;99.90;;;;;;5053106;28;20041;-67
2022/08/08 09:39:41;;;;;;;5.55;1.50;;;20.90;99.90;;;;;;5061933;28;20041;-69
2022/08/08 09:42:12;;;;;;;3.85;1.27;;;21.00;99.90;;;;;;5067065;28;20456;-66
2022/08/08 09:45:03;;;;;;;4.70;1.60;;;21.00;99.90;;;;;;5052182;28;20047;-69
2022/08/08 09:47:31;;;;;;;7.38;1.58;;;21.20;99.90;;;;;;5043248;28;20044;-67
2022/08/08 09:49:58;;;;;;;4.53;1.30;;;21.10;99.90;;;;;;5054725;28;20102;-67
2022/08/08 09:52:30;;;;;;;4.23;1.60;;;21.20;99.90;;;;;;5040392;28;20043;-67
2022/08/08 09:54:57;;;;;;;6.30;1.40;;;21.30;99.90;;;;;;5060256;28;20679;-67
2022/08/08 09:57:38;;;;;;;4.97;1.65;;;21.30;99.90;;;;;;5039350;28;20402;-68
2022/08/08 10:00:08;;;;;;;4.95;1.48;;;21.40;99.90;;;;;;5067097;28;20044;-66
2022/08/08 10:02:37;;;;;;;3.88;1.67;;;21.40;99.90;;;;;;5066560;28;20057;-67
2022/08/08 10:05:11;;;;;;;5.70;1.50;;;21.40;99.90;;;;;;5038712;28;20580;-67
2022/08/08 10:07:44;;;;;;;2.08;1.17;;;21.40;99.90;;;;;;5023986;28;20037;-66
2022/08/08 10:10:10;;;;;;;9.35;1.58;;;21.50;99.80;;;;;;5066818;28;20090;-66
2022/08/08 10:12:38;;;;;;;3.17;1.40;;;21.50;99.90;;;;;;5073868;28;20068;-66
2022/08/08 10:15:06;;;;;;;3.72;1.50;;;21.60;99.90;;;;;;5073166;28;20052;-67
2022/08/08 10:17:49;;;;;;;4.35;1.35;;;21.70;99.90;;;;;;5073802;28;20068;-67
2022/08/08 10:20:15;;;;;;;5.18;1.80;;;21.70;99.90;;;;;;5072998;28;20052;-66
2022/08/08 10:22:59;;;;;;;3.60;1.40;;;21.80;99.90;;;;;;5074554;28;20067;-67
2022/08/08 10:25:26;;;;;;;4.90;1.35;;;21.90;99.90;;;;;;5055286;28;20049;-66
2022/08/08 10:27:54;;;;;;;4.07;1.60;;;21.90;99.30;;;;;;5038609;28;20040;-68
2022/08/08 10:30:21;;;;;;;3.42;1.40;;;22.00;99.90;;;;;;5073611;28;20044;-67
2022/08/08 10:32:53;;;;;;;13.07;1.83;;;22.40;99.90;;;;;;5072183;28;20094;-67
2022/08/08 10:35:23;;;;;;;3.70;1.10;;;22.90;99.50;;;;;;5072465;28;20052;-65
2022/08/08 10:37:57;;;;;;;3.35;1.10;;;23.10;98.00;;;;;;5048188;28;20056;-67
2022/08/08 10:40:31;;;;;;;4.22;1.38;;;23.00;97.60;;;;;;5051061;28;20500;-67
2022/08/08 10:43:02;;;;;;;4.05;1.33;;;22.90;97.90;;;;;;5047293;28;20132;-66
2022/08/08 10:45:32;;;;;;;6.70;1.70;;;22.80;98.10;;;;;;5053753;28;20048;-68
2022/08/08 10:47:59;;;;;;;5.07;1.63;;;22.70;98.60;;;;;;5036124;28;20193;-66
2022/08/08 10:50:36;;;;;;;7.50;1.67;;;22.60;98.60;;;;;;5049119;28;20055;-66
2022/08/08 10:53:07;;;;;;;3.95;1.60;;;22.50;97.70;;;;;;5071970;28;20127;-67
2022/08/08 10:55:34;;;;;;;3.92;1.40;;;22.40;97.80;;;;;;5073321;28;20040;-67
2022/08/08 10:58:02;;;;;;;3.47;1.40;;;22.30;98.20;;;;;;5067706;28;20115;-67
2022/08/08 11:00:29;;;;;;;3.97;1.60;;;22.40;98.50;;;;;;5071920;28;20048;-67
2022/08/08 11:02:56;;;;;;;3.30;1.30;;;22.40;98.50;;;;;;5073117;28;20075;-67
2022/08/08 11:05:23;;;;;;;7.30;1.40;;;22.40;98.20;;;;;;5066272;28;20048;-67
2022/08/08 11:07:53;;;;;;;3.40;1.30;;;22.30;98.30;;;;;;5049475;28;20133;-66
2022/08/08 11:10:24;;;;;;;4.63;1.30;;;22.30;98.40;;;;;;5071906;28;20079;-68
2022/08/08 11:12:58;;;;;;;6.15;1.58;;;22.30;98.70;;;;;;5065798;28;20049;-67
2022/08/08 11:15:28;;;;;;;5.40;1.50;;;22.20;98.90;;;;;;5053957;28;20056;-67
2022/08/08 11:17:54;;;;;;;4.85;1.60;;;22.10;98.90;;;;;;5071093;28;20052;-67
2022/08/08 11:20:24;;;;;;;4.47;1.33;;;22.10;99.10;;;;;;5071397;28;20040;-68
2022/08/08 11:22:54;;;;;;;3.45;1.30;;;22.00;98.90;;;;;;5069673;28;20041;-68
2022/08/08 11:25:28;;;;;;;6.32;1.50;;;22.00;99.00;;;;;;5066255;28;20097;-67
2022/08/08 11:27:58;;;;;;;5.68;1.40;;;22.00;99.00;;;;;;5033264;28;20072;-66
2022/08/08 11:30:27;;;;;;;2.97;1.20;;;22.00;98.60;;;;;;5072207;28;20110;-67
2022/08/08 11:32:56;;;;;;;4.13;1.35;;;21.90;98.50;;;;;;5064956;28;20036;-66
2022/08/08 11:35:24;;;;;;;4.13;1.30;;;21.80;98.60;;;;;;5061067;28;20060;-67
2022/08/08 11:37:50;;;;;;;3.75;1.40;;;21.80;98.80;;;;;;5061270;28;20427;-66
2022/08/08 11:40:16;;;;;;;7.05;1.65;;;21.80;99.50;;;;;;5062887;28;20483;-67
2022/08/08 11:42:42;;;;;;;5.63;1.65;;;21.90;99.10;;;;;;5071276;28;20044;-67
2022/08/08 11:45:10;;;;;;;3.95;1.73;;;21.90;98.30;;;;;;5037663;28;20040;-66
2022/08/08 11:47:39;;;;;;;4.57;1.20;;;21.90;97.90;;;;;;5071369;28;20036;-66
2022/08/08 11:50:07;;;;;;;3.45;1.25;;;21.90;98.00;;;;;;5071933;28;20044;-67
2022/08/08 11:52:34;;;;;;;3.58;1.40;;;21.90;98.00;;;;;;5044759;28;20052;-66
2022/08/08 11:55:00;;;;;;;3.38;1.50;;;21.90;98.20;;;;;;5050245;28;20162;-68
2022/08/08 11:57:27;;;;;;;4.10;1.20;;;21.90;98.00;;;;;;5068695;28;20492;-67
2022/08/08 12:00:01;;;;;;;4.70;1.50;;;21.80;98.10;;;;;;5069306;28;20044;-68
2022/08/08 12:02:29;;;;;;;5.97;1.10;;;21.90;97.60;;;;;;5048407;28;20398;-69
2022/08/08 12:05:08;;;;;;;3.63;1.20;;;21.90;97.90;;;;;;5048229;28;20041;-67
2022/08/08 12:07:53;;;;;;;4.28;1.30;;;21.90;98.30;;;;;;5063271;28;20521;-67
2022/08/08 12:10:22;;;;;;;5.25;1.33;;;22.00;98.10;;;;;;5053303;28;20049;-68
2022/08/08 12:12:49;;;;;;;3.33;1.40;;;21.90;98.00;;;;;;5046492;28;20037;-67
2022/08/08 12:15:32;;;;;;;3.42;1.30;;;21.90;97.90;;;;;;5071520;28;20147;-67
2022/08/08 12:17:58;;;;;;;4.30;1.50;;;21.80;97.70;;;;;;5051487;28;20119;-69
2022/08/08 12:20:24;;;;;;;6.80;1.73;;;21.80;98.10;;;;;;5063410;28;20120;-67
2022/08/08 12:22:51;;;;;;;3.92;1.20;;;21.80;98.20;;;;;;5064440;28;20044;-69
2022/08/08 12:25:29;;;;;;;3.55;1.33;;;21.70;98.50;;;;;;5061994;28;20491;-67
2022/08/08 12:28:09;;;;;;;1.75;1.10;;;21.80;98.50;;;;;;5053212;28;20343;-66
2022/08/08 12:30:34;;;;;;;3.08;1.65;;;22.00;98.40;;;;;;5047285;28;20132;-67
2022/08/08 12:33:01;;;;;;;3.28;1.50;;;22.10;98.10;;;;;;5070951;28;20562;-67
2022/08/08 12:35:37;;;;;;;5.25;1.15;;;22.40;97.90;;;;;;5036368;28;20107;-68
2022/08/08 12:38:11;;;;;;;5.07;1.20;;;23.00;97.90;;;;;;5066991;28;20355;-68
2022/08/08 12:40:39;;;;;;;5.13;1.40;;;23.40;96.90;;;;;;5069718;28;20067;-68
2022/08/08 12:43:08;;;;;;;5.90;1.20;;;23.50;96.60;;;;;;5071161;28;20066;-68
2022/08/08 12:45:40;;;;;;;2.47;1.10;;;23.40;96.70;;;;;;5066860;28;20036;-67
2022/08/08 12:48:27;;;;;;;3.85;1.50;;;23.40;96.10;;;;;;5063242;28;20044;-68
2022/08/08 12:50:56;;;;;;;6.60;1.50;;;23.30;95.70;;;;;;5060968;28;20139;-69
2022/08/08 12:53:28;;;;;;;2.92;1.10;;;23.10;96.10;;;;;;5064614;28;20486;-68
2022/08/08 12:55:59;;;;;;;5.25;1.17;;;23.00;96.50;;;;;;5049957;28;20040;-67
2022/08/08 12:58:27;;;;;;;3.72;1.33;;;23.00;96.60;;;;;;5070372;28;20047;-69
2022/08/08 13:00:53;;;;;;;4.50;1.52;;;22.90;95.80;;;;;;5064972;28;20045;-67
2022/08/08 13:03:26;;;;;;;5.00;1.35;;;22.70;96.20;;;;;;5063848;28;20036;-68
2022/08/08 13:06:06;;;;;;;3.78;1.15;;;22.70;95.70;;;;;;5070141;28;20048;-66
2022/08/08 13:08:50;;;;;;;3.38;1.30;;;22.50;95.90;;;;;;5047061;28;20044;-67
2022/08/08 13:11:31;;;;;;;2.22;1.10;;;22.30;96.00;;;;;;5043696;28;20512;-66
2022/08/08 13:14:10;;;;;;;5.18;1.48;;;22.30;96.60;;;;;;5070602;28;20140;-68
2022/08/08 13:16:40;;;;;;;3.13;1.27;;;22.20;96.90;;;;;;5057882;28;20498;-66
2022/08/08 13:19:14;;;;;;;7.80;1.50;;;22.20;97.30;;;;;;5070097;28;20044;-67
2022/08/08 13:21:45;;;;;;;3.40;1.30;;;22.30;97.20;;;;;;5070088;28;20063;-68
2022/08/08 13:24:12;;;;;;;3.00;1.33;;;22.50;97.60;;;;;;5071078;28;20372;-67
2022/08/08 13:26:37;;;;;;;2.35;1.10;;;22.90;97.40;;;;;;5066300;28;20039;-68